Pacoima, CA (91331)

4:03 AM PST on December 21, 2014 (GMT -0800)
KCASHADO1 | Change Station
CLOSE
Current Station
Personal Weather Station
Location: Shadow Hills, CA
Elevation: 963 ft
Nearby Weather Stations

Elev 963 ft 34.25 °N, 118.36 °W | Updated 7 seconds ago

Partly Cloudy
Partly Cloudy
48.8 °F
Feels Like 49 °F
N
0.0
Wind Variable Wind from WSW
Gusts 0.0 mph

Today
High -- | Low -- °F
--% Chance of Precip.
Yesterday
High -- | Low -- °F
Precip. -- in
6:55 AM 4:47 PM
Waning Crescent, 0% visible
Pressure 30.10 in
Visibility 6.0 miles
Clouds Clear
Windchill 49 °F
Dew Point 47 °F
Humidity 93%
Rainfall 0.00 in
Snow Depth Not available.
UV 0.0 out of 12
Pollen 4.00 out of 12
Air Quality Not available.
Flu Activity Not available.
METAR KVNY 211151Z AUTO 00000KT 6SM HZ CLR 12/08 A3011 RMK AO2 SLP191 T01170083 10128 20094 58012

More Conditions Fewer Conditions

Pressure 30.10 in
Visibility 6.0 miles
Clouds Clear
Windchill 49 °F
Dew Point 47 °F
Humidity 93%
Rainfall 0.00 in
Snow Depth Not available.
UV 0.0 out of 12
Pollen 4.00 out of 12
Air Quality Not available.
Flu Activity Not available.
METAR KVNY 211151Z AUTO 00000KT 6SM HZ CLR 12/08 A3011 RMK AO2 SLP191 T01170083 10128 20094 58012

More Conditions Fewer Conditions

10-Day Weather Forecast

Almanac

Astronomy

Dec. 21, 2014 Rise Set
Actual Time
Civil Twilight
Nautical Twilight
Astronomical Twilight
Moon
Length of Visible Light
Length of Day
Tomorrow will be .
, % of the Moon is Illuminated

Today's Extremes

State Highs State Lows

Community

WunderPhotos

Upload Photos

1,779,371 photos uploaded!

WunderBlogs® & News

Nearby

Air Quality

  Air Quality AQ Index Pollutant
Not available.

Snow Depth

Station Depth Elevation

Earthquake Activity

City Distance Mag. Time & Date
Minimum magnitude displayed is 2.5.

Coastal Water Temperatures

Place Temperature

Nearby Weather Stations